Portada
METAR-TAF:

METAR-TAF

Aeroports :

Aeroport de Jiddah Rei Abdulaziz

Jiddah, Aràbia Saudita

latitud: 21-42N, longitud: 039-11E, altitud: 15 m

Observació

L'informe es va fer fa 39 minuts, a les 15:00 UTC
Vent 6 kt del Oest
Temperatura 32°C
Humitat 67%
Pressió 1004 hPa
Visibilitat 10 km o més
sense núvols per sota de 1500 mi sense presència de cumulonimbus.

METAR: OEJN 251500Z 28006KT CAVOK 32/25 Q1004 NOSIG

Hora: 18:39 (15:39 UTC)

Pronòstic

L'informe es va fer fa 4 hores i 39 minuts, a les 11:00 UTC
Pronòstic vàlid del 25 a les 12 UTC al 26 a les 18 UTC
Vent 12 kt del Oest
Visibilitat 10 km o més
Escasses núvols a una alçada de 4000 ft
Probabilitat 30% :
Temporalment
l' 25 a les 14 UTC al 25 a les 18 UTC
Visibilitat: 4000 m
Escasses núvols a una alçada de 3500 ft, Cumulonimbus.
Núvols disperses a una alçada de 4000 ft
Pols estès

TAF: OEJN 251100Z 2512/2618 28012KT 9999 FEW040 PROB30 TEMPO 2514/2518 4000 DU FEW035CB SCT040

Observacions i pronòstics meteorològics de més de 4000 aeroports (METAR i TAF).

Les estacions disponibles són els punts grocs i vermells al mapa.

Posi el ratolí al punt desitjat per veure el nom de l'estació.

Feu clic per veure les observacions i els pronòstics meteorològics.

Per canviar el mapa: feu clic els botons verds amb una creu de color negre per apropar; al botó verd amb un guió per allunyar la imatge; o en les fletxes verdes per a mapes adjacents.


METAR-TAF: